Time;durP1;ratioP1;P1;durP2;ratioP2;P2;SDS_P1;SDS_P2;PMS_P1;PMS_P2;Temp;Humidity;BMP_temperature;BMP_pressure;BME280_temperature;BME280_humidity;BME280_pressure;Samples;Min_cycle;Max_cycle;Signal;HPM_P1;HPM_P2
2021/05/26 00:01:09;;;;;;;6.47;1.38;;;10.60;99.90;;;;;;5110467;28;20190;-68
2021/05/26 00:03:36;;;;;;;6.15;1.75;;;10.50;99.90;;;;;;5110255;28;20129;-68
2021/05/26 00:06:02;;;;;;;5.80;1.65;;;10.60;99.90;;;;;;5109569;28;20123;-68
2021/05/26 00:08:30;;;;;;;2.70;0.73;;;10.70;99.90;;;;;;5110119;28;20038;-68
2021/05/26 00:10:57;;;;;;;5.15;0.82;;;10.70;99.90;;;;;;5109609;28;20028;-68
2021/05/26 00:13:23;;;;;;;2.25;0.73;;;10.80;99.90;;;;;;5110407;28;20028;-68
2021/05/26 00:15:50;;;;;;;4.80;0.63;;;10.80;99.90;;;;;;5108864;28;20092;-68
2021/05/26 00:18:16;;;;;;;4.00;0.82;;;10.80;99.90;;;;;;5109747;28;20092;-68
2021/05/26 00:20:43;;;;;;;2.90;0.45;;;10.80;99.90;;;;;;5110252;28;20030;-68
2021/05/26 00:23:09;;;;;;;3.80;0.57;;;10.80;99.90;;;;;;5109526;28;20057;-68
2021/05/26 00:25:35;;;;;;;2.78;0.85;;;10.70;99.90;;;;;;5110164;28;20028;-67
2021/05/26 00:28:00;;;;;;;4.72;0.95;;;10.70;99.90;;;;;;5108286;28;20032;-68
2021/05/26 00:30:29;;;;;;;1.88;0.82;;;10.80;99.90;;;;;;5110477;28;20024;-67
2021/05/26 00:32:56;;;;;;;2.90;0.93;;;10.80;99.90;;;;;;5111408;28;20382;-69
2021/05/26 00:35:22;;;;;;;2.65;0.60;;;10.90;99.90;;;;;;5112880;28;20031;-68
2021/05/26 00:37:47;;;;;;;6.50;1.67;;;10.90;99.90;;;;;;5112795;28;20536;-68
2021/05/26 00:40:14;;;;;;;2.75;0.70;;;10.90;99.90;;;;;;5113837;28;20122;-68
2021/05/26 00:42:39;;;;;;;3.47;0.75;;;10.80;99.90;;;;;;5114191;28;20138;-67
2021/05/26 00:45:06;;;;;;;3.78;0.80;;;10.80;99.90;;;;;;5113481;28;20125;-69
2021/05/26 00:47:39;;;;;;;4.28;1.30;;;10.80;99.90;;;;;;5113781;28;20039;-68
2021/05/26 00:50:06;;;;;;;4.25;1.10;;;10.80;99.90;;;;;;5113298;28;20043;-69
2021/05/26 00:52:32;;;;;;;2.85;0.90;;;10.80;99.90;;;;;;5112481;28;20457;-68
2021/05/26 00:54:57;;;;;;;3.92;1.30;;;10.70;99.90;;;;;;5113028;28;20036;-68
2021/05/26 00:57:24;;;;;;;5.70;0.73;;;10.80;99.90;;;;;;5112681;28;20026;-68
2021/05/26 00:59:49;;;;;;;7.57;0.88;;;10.70;99.90;;;;;;5114000;28;20028;-67
2021/05/26 01:02:15;;;;;;;4.25;0.77;;;10.60;99.90;;;;;;5112821;28;20138;-66
2021/05/26 01:04:40;;;;;;;4.57;1.52;;;10.60;99.90;;;;;;5113568;28;20195;-67
2021/05/26 01:07:06;;;;;;;1.20;0.63;;;10.60;99.90;;;;;;5112551;28;20387;-68
2021/05/26 01:09:32;;;;;;;2.47;0.95;;;10.60;99.90;;;;;;5113889;28;20045;-67
2021/05/26 01:11:57;;;;;;;6.75;1.25;;;10.50;99.90;;;;;;5113272;28;20038;-68
2021/05/26 01:14:23;;;;;;;5.60;1.80;;;10.40;99.90;;;;;;5113284;28;20024;-67
2021/05/26 01:16:49;;;;;;;4.53;0.98;;;10.30;99.90;;;;;;5113181;28;20063;-67
2021/05/26 01:19:17;;;;;;;6.78;1.00;;;10.20;99.90;;;;;;5112198;28;20416;-68
2021/05/26 01:21:43;;;;;;;3.20;1.00;;;10.30;99.90;;;;;;5111784;28;20023;-67
2021/05/26 01:24:09;;;;;;;4.47;1.08;;;10.20;99.90;;;;;;5110884;28;20035;-67
2021/05/26 01:26:35;;;;;;;3.92;0.80;;;10.20;99.90;;;;;;5113037;28;20045;-67
2021/05/26 01:29:01;;;;;;;6.72;1.10;;;10.10;99.90;;;;;;5111126;28;20437;-68
2021/05/26 01:31:26;;;;;;;6.10;0.80;;;10.20;99.90;;;;;;5112796;28;20390;-67
2021/05/26 01:33:52;;;;;;;7.13;0.80;;;10.30;99.90;;;;;;5111586;28;20127;-68
2021/05/26 01:36:18;;;;;;;5.95;1.02;;;10.40;99.90;;;;;;5110771;28;20362;-67
2021/05/26 01:38:43;;;;;;;5.82;1.38;;;10.30;99.90;;;;;;5111635;28;20020;-68
2021/05/26 01:41:09;;;;;;;5.40;1.40;;;10.10;99.90;;;;;;5111872;28;20082;-67
2021/05/26 01:43:35;;;;;;;5.05;1.58;;;10.10;99.90;;;;;;5112060;28;20490;-68
2021/05/26 01:46:02;;;;;;;2.90;0.90;;;10.00;99.90;;;;;;5110154;28;20096;-67
2021/05/26 01:48:28;;;;;;;4.93;1.15;;;10.00;99.90;;;;;;5112545;28;20209;-68
2021/05/26 01:50:54;;;;;;;3.08;1.30;;;10.10;99.90;;;;;;5112716;28;20350;-67
2021/05/26 01:53:19;;;;;;;4.25;1.85;;;10.20;99.90;;;;;;5111465;28;20131;-67
2021/05/26 01:55:45;;;;;;;4.20;1.05;;;10.10;99.90;;;;;;5112571;28;20035;-66
2021/05/26 01:58:14;;;;;;;6.50;1.05;;;10.10;99.90;;;;;;5112250;28;20097;-66
2021/05/26 02:00:41;;;;;;;2.47;1.20;;;10.20;99.90;;;;;;5112437;28;20103;-67
2021/05/26 02:03:07;;;;;;;3.20;0.80;;;10.20;99.90;;;;;;5110596;28;20028;-67
2021/05/26 02:05:33;;;;;;;4.95;0.80;;;10.20;99.90;;;;;;5110954;28;20035;-67
2021/05/26 02:08:00;;;;;;;2.80;0.95;;;10.30;99.90;;;;;;5110280;28;20216;-69
2021/05/26 02:13:10;;;;;;;4.25;1.15;;;10.20;99.90;;;;;;5111685;28;20507;-68
2021/05/26 02:15:36;;;;;;;2.90;0.90;;;10.30;99.90;;;;;;5110875;28;20036;-67
2021/05/26 02:18:02;;;;;;;3.22;1.08;;;10.20;99.90;;;;;;5109535;28;20529;-68
2021/05/26 02:20:27;;;;;;;2.63;0.90;;;10.30;99.90;;;;;;5110747;28;20110;-67
2021/05/26 02:22:53;;;;;;;5.45;1.15;;;10.30;99.90;;;;;;5111823;28;20046;-67
2021/05/26 02:25:18;;;;;;;4.03;0.80;;;10.30;99.90;;;;;;5109901;28;20106;-67
2021/05/26 02:27:44;;;;;;;3.13;1.45;;;10.30;99.90;;;;;;5112009;28;20498;-67
2021/05/26 02:30:10;;;;;;;7.07;2.03;;;10.30;99.90;;;;;;5110012;28;20024;-67
2021/05/26 02:32:36;;;;;;;3.90;1.23;;;10.10;99.90;;;;;;5111933;28;20051;-67
2021/05/26 02:35:03;;;;;;;4.70;1.30;;;10.10;99.90;;;;;;5109427;28;20081;-67
2021/05/26 02:37:29;;;;;;;5.82;1.30;;;10.20;99.90;;;;;;5111858;28;20111;-68
2021/05/26 02:39:55;;;;;;;3.05;1.08;;;10.00;99.90;;;;;;5111888;28;20095;-68
2021/05/26 02:42:20;;;;;;;5.28;1.35;;;10.00;99.90;;;;;;5110924;28;20127;-69
2021/05/26 02:44:46;;;;;;;4.50;1.02;;;10.00;99.90;;;;;;5111655;28;20063;-69
2021/05/26 02:47:11;;;;;;;4.53;1.90;;;10.10;99.90;;;;;;5110593;28;20109;-67
2021/05/26 02:49:37;;;;;;;6.53;1.60;;;10.10;99.90;;;;;;5109963;28;20023;-66
2021/05/26 02:52:03;;;;;;;3.92;1.15;;;10.00;99.90;;;;;;5109597;28;20024;-68
2021/05/26 02:54:28;;;;;;;4.85;1.25;;;9.90;99.90;;;;;;5111390;28;20031;-67
2021/05/26 02:56:54;;;;;;;2.63;1.15;;;10.00;99.90;;;;;;5109735;28;20047;-67
2021/05/26 02:59:19;;;;;;;3.40;1.35;;;10.10;99.90;;;;;;5110835;28;20163;-67
2021/05/26 03:01:45;;;;;;;5.28;1.40;;;10.00;99.90;;;;;;5111243;28;20023;-67
2021/05/26 03:04:11;;;;;;;8.18;1.55;;;10.00;99.90;;;;;;5110895;28;20464;-67
2021/05/26 03:06:36;;;;;;;4.47;1.23;;;10.00;99.90;;;;;;5111000;28;20035;-67
2021/05/26 03:09:03;;;;;;;2.63;1.10;;;10.00;99.90;;;;;;5109434;28;20031;-69
2021/05/26 03:11:29;;;;;;;4.15;1.60;;;9.90;99.90;;;;;;5111242;28;20030;-67
2021/05/26 03:13:54;;;;;;;7.63;1.63;;;9.90;99.90;;;;;;5109891;28;20028;-68
2021/05/26 03:16:20;;;;;;;2.75;1.00;;;10.00;99.90;;;;;;5110301;28;20046;-67
2021/05/26 03:18:47;;;;;;;3.40;1.13;;;10.00;99.90;;;;;;5110990;28;20473;-68
2021/05/26 03:21:13;;;;;;;10.57;2.03;;;10.10;99.90;;;;;;5110537;28;20054;-68
2021/05/26 03:23:41;;;;;;;8.00;1.45;;;10.10;99.90;;;;;;5109721;28;20023;-68
2021/05/26 03:26:07;;;;;;;5.57;1.10;;;10.10;99.90;;;;;;5110411;28;20118;-67
2021/05/26 03:28:33;;;;;;;2.22;0.80;;;10.10;99.90;;;;;;5111034;28;20028;-67
2021/05/26 03:30:59;;;;;;;7.32;1.92;;;10.10;99.90;;;;;;5110835;28;20028;-68
2021/05/26 03:33:24;;;;;;;3.00;1.20;;;10.10;99.90;;;;;;5110362;28;20028;-67
2021/05/26 03:35:50;;;;;;;2.88;1.52;;;10.10;99.90;;;;;;5111212;28;20168;-67
2021/05/26 03:38:15;;;;;;;5.00;1.00;;;10.20;99.90;;;;;;5108980;28;20404;-67
2021/05/26 03:40:42;;;;;;;3.15;1.75;;;10.10;99.90;;;;;;5109616;28;20030;-68
2021/05/26 03:43:08;;;;;;;4.88;1.20;;;10.00;99.90;;;;;;5110385;28;20031;-68
2021/05/26 03:45:34;;;;;;;5.93;1.60;;;10.00;99.90;;;;;;5110869;28;20024;-67
2021/05/26 03:48:00;;;;;;;4.88;1.40;;;10.00;99.90;;;;;;5110651;28;20061;-68
2021/05/26 03:50:27;;;;;;;5.53;2.15;;;9.90;99.90;;;;;;5110212;28;20024;-68
2021/05/26 03:52:54;;;;;;;8.02;1.15;;;9.80;99.90;;;;;;5110787;28;20031;-67
2021/05/26 03:55:21;;;;;;;4.68;1.58;;;9.80;99.90;;;;;;5091826;28;20101;-67
2021/05/26 03:57:48;;;;;;;2.65;1.15;;;9.70;99.90;;;;;;5111045;28;20031;-67
2021/05/26 04:00:17;;;;;;;5.07;1.77;;;9.80;99.90;;;;;;5110118;28;20031;-68
2021/05/26 04:02:43;;;;;;;10.30;2.10;;;9.80;99.90;;;;;;5110703;28;20027;-68
2021/05/26 04:05:09;;;;;;;8.40;1.80;;;9.80;99.90;;;;;;5109645;28;20127;-68
2021/05/26 04:07:35;;;;;;;5.93;1.42;;;9.90;99.90;;;;;;5111690;28;20129;-68
2021/05/26 04:10:01;;;;;;;7.28;1.42;;;9.90;99.90;;;;;;5114742;28;20439;-67
2021/05/26 04:12:28;;;;;;;4.22;1.75;;;9.80;99.90;;;;;;5114140;28;20026;-66
2021/05/26 04:14:54;;;;;;;4.15;1.90;;;9.80;99.90;;;;;;5113726;28;20027;-68
2021/05/26 04:17:20;;;;;;;6.32;1.17;;;9.80;99.90;;;;;;5112658;28;20046;-67
2021/05/26 04:19:46;;;;;;;7.13;2.30;;;9.80;99.90;;;;;;5114371;28;20507;-68
2021/05/26 04:22:12;;;;;;;5.97;1.83;;;10.00;99.90;;;;;;5114375;28;20027;-68
2021/05/26 04:24:37;;;;;;;6.35;2.22;;;9.90;99.90;;;;;;5114903;28;20678;-67
2021/05/26 04:27:03;;;;;;;4.80;1.60;;;9.90;99.90;;;;;;5113271;28;20027;-67
2021/05/26 04:29:29;;;;;;;5.30;2.53;;;9.90;99.90;;;;;;5112730;28;20115;-67
2021/05/26 04:31:58;;;;;;;4.25;1.83;;;9.90;99.90;;;;;;5114666;28;20468;-68
2021/05/26 04:34:24;;;;;;;6.72;2.17;;;9.90;99.90;;;;;;5114547;28;20028;-68
2021/05/26 04:36:50;;;;;;;6.53;2.10;;;10.00;99.90;;;;;;5114795;28;20458;-68
2021/05/26 04:39:16;;;;;;;4.05;1.88;;;10.10;99.90;;;;;;5113886;28;20086;-67
2021/05/26 04:41:42;;;;;;;4.30;1.42;;;10.10;99.90;;;;;;5113083;28;20156;-68
2021/05/26 04:44:08;;;;;;;6.82;1.60;;;9.90;99.90;;;;;;5112403;28;20059;-67
2021/05/26 04:46:34;;;;;;;5.18;1.90;;;9.90;99.90;;;;;;5113013;28;20042;-68
2021/05/26 04:49:00;;;;;;;8.95;2.25;;;10.00;99.90;;;;;;5113852;28;20035;-67
2021/05/26 04:51:25;;;;;;;2.85;1.80;;;10.10;99.90;;;;;;5113916;28;20032;-67
2021/05/26 04:53:51;;;;;;;6.13;1.67;;;10.10;99.90;;;;;;5114762;28;20410;-67
2021/05/26 04:56:17;;;;;;;10.10;2.00;;;10.10;99.90;;;;;;5112707;28;20103;-68
2021/05/26 04:58:43;;;;;;;5.43;1.95;;;10.10;99.90;;;;;;5112861;28;20429;-68
2021/05/26 05:01:09;;;;;;;6.25;1.73;;;10.10;99.90;;;;;;5112163;28;20166;-67
2021/05/26 05:03:34;;;;;;;6.82;1.88;;;10.10;99.90;;;;;;5112333;28;20028;-68
2021/05/26 05:06:00;;;;;;;9.18;2.08;;;10.10;99.90;;;;;;5113726;28;20052;-68
2021/05/26 05:08:26;;;;;;;6.43;2.20;;;10.20;99.90;;;;;;5111650;28;20023;-67
2021/05/26 05:10:55;;;;;;;8.57;2.75;;;10.00;99.90;;;;;;5112422;28;20376;-67
2021/05/26 05:13:22;;;;;;;5.03;2.13;;;10.00;99.90;;;;;;5112599;28;20027;-67
2021/05/26 05:15:48;;;;;;;6.85;1.90;;;10.00;99.90;;;;;;5113192;28;20193;-68
2021/05/26 05:18:13;;;;;;;6.82;1.85;;;9.90;99.90;;;;;;5112498;28;20047;-68
2021/05/26 05:20:39;;;;;;;7.47;2.40;;;9.90;99.90;;;;;;5113314;28;20028;-67
2021/05/26 05:23:05;;;;;;;8.45;2.10;;;9.90;99.90;;;;;;5111857;28;20031;-68
2021/05/26 05:25:30;;;;;;;5.25;2.47;;;9.90;99.90;;;;;;5111184;28;20114;-68
2021/05/26 05:27:56;;;;;;;7.20;2.20;;;9.80;99.90;;;;;;5113400;28;20038;-67
2021/05/26 05:30:23;;;;;;;5.47;2.08;;;9.90;99.90;;;;;;5104908;28;20437;-67
2021/05/26 05:32:48;;;;;;;4.55;1.77;;;10.00;99.90;;;;;;5113059;28;20421;-64
2021/05/26 05:35:15;;;;;;;7.57;2.45;;;9.90;99.90;;;;;;5112271;28;20051;-68
2021/05/26 05:37:41;;;;;;;5.03;2.35;;;9.90;99.90;;;;;;5113746;28;20108;-68
2021/05/26 05:40:08;;;;;;;5.40;2.65;;;9.90;99.90;;;;;;5110649;28;20120;-69
2021/05/26 05:42:33;;;;;;;9.75;2.72;;;10.00;99.90;;;;;;5111783;28;20079;-67
2021/05/26 05:44:59;;;;;;;12.38;2.80;;;10.00;99.90;;;;;;5109881;28;20106;-64
2021/05/26 05:47:25;;;;;;;4.28;1.77;;;10.60;99.90;;;;;;5111129;28;20048;-63
2021/05/26 05:49:51;;;;;;;7.82;1.83;;;10.80;99.90;;;;;;5089874;28;20054;-63
2021/05/26 05:52:16;;;;;;;8.20;2.10;;;11.10;99.90;;;;;;5106026;28;20032;-64
2021/05/26 05:54:44;;;;;;;5.25;1.70;;;11.40;99.90;;;;;;5091265;28;20127;-64
2021/05/26 05:57:09;;;;;;;5.65;1.42;;;11.60;99.90;;;;;;5088958;28;20123;-64
2021/05/26 05:59:35;;;;;;;6.97;2.00;;;11.30;99.90;;;;;;5106086;27;20466;-63
2021/05/26 06:02:01;;;;;;;4.82;1.90;;;10.90;99.90;;;;;;5089131;28;20111;-63
2021/05/26 06:04:26;;;;;;;5.40;2.00;;;11.00;99.90;;;;;;5088957;28;20476;-69
2021/05/26 06:06:52;;;;;;;6.50;2.10;;;10.70;99.90;;;;;;5091175;28;20040;-69
2021/05/26 06:09:20;;;;;;;6.60;2.25;;;10.60;99.90;;;;;;5101169;28;20043;-70
2021/05/26 06:11:46;;;;;;;8.05;2.95;;;10.50;99.90;;;;;;5111383;28;20058;-69
2021/05/26 06:14:12;;;;;;;4.75;2.67;;;10.30;99.90;;;;;;5110206;28;20106;-70
2021/05/26 06:16:39;;;;;;;5.85;2.63;;;10.40;99.90;;;;;;5110979;28;20032;-71
2021/05/26 06:19:06;;;;;;;5.95;3.15;;;10.40;99.90;;;;;;5111032;28;20112;-69
2021/05/26 06:21:33;;;;;;;10.25;4.75;;;10.50;99.90;;;;;;5108878;28;20468;-70
2021/05/26 06:24:00;;;;;;;8.20;2.85;;;10.40;99.90;;;;;;5110933;28;20024;-69
2021/05/26 06:26:26;;;;;;;7.03;2.50;;;10.30;99.90;;;;;;5108538;28;20136;-69
2021/05/26 06:28:52;;;;;;;6.38;2.80;;;10.30;99.90;;;;;;5109415;28;20088;-69
2021/05/26 06:31:20;;;;;;;7.13;3.03;;;10.30;99.90;;;;;;5108187;28;20448;-70
2021/05/26 06:33:45;;;;;;;6.88;2.88;;;10.30;99.90;;;;;;5108574;28;20356;-68
2021/05/26 06:36:12;;;;;;;8.55;2.42;;;10.30;99.90;;;;;;5109350;28;20110;-71
2021/05/26 06:38:38;;;;;;;5.30;2.80;;;10.40;99.90;;;;;;5110111;28;20147;-69
2021/05/26 06:41:04;;;;;;;9.68;2.58;;;10.40;99.90;;;;;;5110162;28;20039;-68
2021/05/26 06:43:31;;;;;;;10.45;2.92;;;10.30;99.90;;;;;;5107615;28;20254;-69
2021/05/26 06:45:57;;;;;;;9.70;3.53;;;10.40;99.90;;;;;;5110159;28;20035;-69
2021/05/26 06:48:23;;;;;;;7.68;2.70;;;10.40;99.90;;;;;;5108448;28;20163;-69
2021/05/26 06:50:49;;;;;;;5.95;2.83;;;10.30;99.90;;;;;;5109951;28;20465;-70
2021/05/26 06:53:15;;;;;;;6.00;2.83;;;10.30;99.90;;;;;;5101271;28;20103;-69
2021/05/26 06:55:40;;;;;;;9.52;3.10;;;10.20;99.90;;;;;;5089959;28;20055;-70
2021/05/26 06:58:06;;;;;;;5.85;2.60;;;10.30;99.90;;;;;;5089796;28;20132;-70
2021/05/26 07:00:33;;;;;;;6.75;2.70;;;10.40;99.90;;;;;;5088922;28;20469;-69
2021/05/26 07:02:59;;;;;;;10.07;4.20;;;10.40;99.90;;;;;;5089439;28;20115;-70
2021/05/26 07:05:25;;;;;;;8.90;3.42;;;10.30;99.90;;;;;;5088879;28;20028;-69
2021/05/26 07:07:51;;;;;;;5.85;2.88;;;10.30;99.90;;;;;;5087899;28;20104;-70
2021/05/26 07:10:18;;;;;;;4.45;2.90;;;10.20;99.90;;;;;;5108422;28;20079;-69
2021/05/26 07:12:46;;;;;;;8.57;3.10;;;10.30;99.90;;;;;;5107478;28;20138;-68
2021/05/26 07:15:13;;;;;;;7.85;4.38;;;10.50;99.90;;;;;;5106220;28;20382;-70
2021/05/26 07:17:38;;;;;;;10.95;4.25;;;10.50;99.90;;;;;;5089567;28;20036;-70
2021/05/26 07:20:04;;;;;;;10.15;3.63;;;10.50;99.90;;;;;;5105918;28;20085;-69
2021/05/26 07:22:30;;;;;;;11.95;5.05;;;10.50;99.90;;;;;;5106715;28;20345;-69
2021/05/26 07:24:56;;;;;;;6.65;3.55;;;10.40;99.90;;;;;;5107144;28;20295;-70
2021/05/26 07:27:22;;;;;;;5.80;2.72;;;10.50;99.90;;;;;;5106517;28;20105;-69
2021/05/26 07:29:47;;;;;;;7.65;2.33;;;10.60;99.90;;;;;;5107277;28;20113;-69
2021/05/26 07:32:13;;;;;;;7.97;2.92;;;10.70;99.90;;;;;;5106088;28;20532;-68
2021/05/26 07:34:39;;;;;;;9.50;2.72;;;10.70;99.90;;;;;;5106783;28;20043;-67
2021/05/26 07:37:04;;;;;;;7.85;2.40;;;10.70;99.90;;;;;;5106715;28;20506;-68
2021/05/26 07:39:35;;;;;;;5.72;2.55;;;10.70;99.90;;;;;;5104802;28;20055;-68
2021/05/26 07:42:05;;;;;;;4.82;1.98;;;10.80;99.90;;;;;;5089185;28;20077;-70
2021/05/26 07:44:31;;;;;;;12.20;3.13;;;10.70;99.90;;;;;;5106103;28;20233;-68
2021/05/26 07:46:56;;;;;;;7.93;2.20;;;10.80;99.90;;;;;;5087183;28;20051;-69
2021/05/26 07:49:22;;;;;;;9.43;2.38;;;10.80;99.90;;;;;;5088366;28;20418;-69
2021/05/26 07:51:54;;;;;;;6.10;2.25;;;10.90;99.90;;;;;;5089142;28;20028;-69
2021/05/26 07:54:24;;;;;;;4.93;1.80;;;11.00;99.90;;;;;;5088626;28;20036;-71
2021/05/26 07:56:50;;;;;;;4.15;1.75;;;11.30;99.90;;;;;;5089082;28;20114;-69
2021/05/26 07:59:16;;;;;;;6.32;2.30;;;11.60;99.90;;;;;;5086889;28;20034;-68
2021/05/26 08:01:43;;;;;;;9.43;1.95;;;11.40;99.90;;;;;;5087382;28;20452;-69
2021/05/26 08:04:09;;;;;;;8.00;2.97;;;11.40;99.90;;;;;;5088907;28;20040;-70
2021/05/26 08:06:35;;;;;;;7.35;2.03;;;11.30;99.90;;;;;;5088434;28;20060;-68
2021/05/26 08:09:01;;;;;;;4.10;1.90;;;11.20;99.90;;;;;;5087420;28;20067;-68
2021/05/26 08:11:26;;;;;;;4.82;2.67;;;11.20;99.90;;;;;;5086466;28;20054;-70
2021/05/26 08:13:52;;;;;;;6.57;2.35;;;11.20;99.90;;;;;;5088506;28;20484;-68
2021/05/26 08:16:19;;;;;;;5.20;1.50;;;11.10;99.90;;;;;;5086678;28;20035;-68
2021/05/26 08:18:44;;;;;;;5.57;1.85;;;11.10;99.90;;;;;;5096430;28;20097;-67
2021/05/26 08:21:11;;;;;;;6.70;2.97;;;11.10;99.90;;;;;;5107486;28;20480;-68
2021/05/26 08:23:37;;;;;;;3.75;1.65;;;11.20;99.90;;;;;;5108827;28;20104;-68
2021/05/26 08:26:03;;;;;;;5.32;1.80;;;11.20;99.90;;;;;;5108447;28;20069;-69
2021/05/26 08:28:29;;;;;;;5.88;1.80;;;11.30;99.90;;;;;;5108508;28;20436;-70
2021/05/26 08:30:56;;;;;;;6.10;1.90;;;11.30;99.90;;;;;;5108658;28;20016;-68
2021/05/26 08:33:21;;;;;;;5.35;2.22;;;11.40;99.90;;;;;;5108143;28;20020;-67
2021/05/26 08:35:47;;;;;;;4.10;1.58;;;11.40;99.90;;;;;;5108521;28;20024;-68
2021/05/26 08:38:12;;;;;;;5.15;2.03;;;11.40;99.90;;;;;;5099240;28;20028;-51
2021/05/26 08:40:39;;;;;;;5.25;1.63;;;11.60;99.90;;;;;;5093458;28;20035;-73
2021/05/26 08:43:05;;;;;;;48.13;10.75;;;11.60;99.90;;;;;;5088359;28;20028;-64
2021/05/26 08:45:31;;;;;;;9.15;1.65;;;11.80;99.90;;;;;;5087814;28;20246;-69
2021/05/26 08:47:59;;;;;;;23.15;4.45;;;12.00;99.90;;;;;;5088733;28;20081;-48
2021/05/26 08:50:26;;;;;;;5.25;2.05;;;12.70;99.90;;;;;;5087223;28;20166;-69
2021/05/26 08:52:51;;;;;;;6.97;1.98;;;12.60;99.90;;;;;;5086555;28;20020;-68
2021/05/26 08:55:18;;;;;;;2.47;1.02;;;12.60;99.90;;;;;;5090189;28;20031;-67
2021/05/26 08:57:43;;;;;;;6.82;2.20;;;12.60;99.90;;;;;;5091986;28;20020;-49
2021/05/26 09:00:10;;;;;;;19.67;1.92;;;13.60;99.90;;;;;;5092181;28;20455;-50
2021/05/26 09:02:36;;;;;;;4.28;1.50;;;14.70;99.90;;;;;;5091029;28;20032;-50
2021/05/26 09:05:01;;;;;;;3.65;1.52;;;14.80;99.90;;;;;;5090868;28;20376;-49
2021/05/26 09:07:30;;;;;;;4.35;1.27;;;15.20;99.90;;;;;;5092762;28;20383;-50
2021/05/26 09:10:05;;;;;;;6.85;1.38;;;15.40;99.90;;;;;;5113467;28;20031;-49
2021/05/26 09:12:43;;;;;;;6.75;1.60;;;14.70;99.90;;;;;;5112585;28;20020;-49
2021/05/26 09:15:13;;;;;;;5.28;1.40;;;14.40;99.90;;;;;;5112563;28;20028;-48
2021/05/26 09:17:39;;;;;;;6.40;1.25;;;14.20;99.90;;;;;;5111392;28;20038;-48
2021/05/26 09:20:15;;;;;;;4.13;1.15;;;14.00;99.90;;;;;;5113360;28;20445;-48
2021/05/26 09:23:20;;;;;;;5.35;1.25;;;13.80;99.90;;;;;;5112851;28;20072;-51
2021/05/26 09:25:46;;;;;;;4.55;0.93;;;14.40;99.90;;;;;;5049470;28;20040;-49
2021/05/26 09:28:16;;;;;;;2.90;1.20;;;14.40;99.90;;;;;;5101538;28;20078;-58
2021/05/26 09:30:42;;;;;;;3.53;1.35;;;14.80;99.90;;;;;;5111153;28;20051;-53
2021/05/26 09:33:30;;;;;;;5.07;0.80;;;14.90;99.90;;;;;;5111581;28;20050;-54
2021/05/26 09:36:20;;;;;;;3.15;1.00;;;14.90;99.90;;;;;;5111541;28;20032;-55
2021/05/26 09:39:05;;;;;;;1.30;0.65;;;15.00;99.90;;;;;;5110135;28;20043;-55
2021/05/26 09:41:35;;;;;;;5.28;1.10;;;15.40;99.90;;;;;;5109547;28;20409;-54
2021/05/26 09:44:01;;;;;;;5.40;1.33;;;15.20;99.90;;;;;;5110417;28;20034;-68
2021/05/26 09:46:34;;;;;;;5.07;1.20;;;15.60;99.90;;;;;;5108399;28;20306;-69
2021/05/26 09:49:16;;;;;;;3.08;0.88;;;15.10;99.90;;;;;;5103243;28;20048;-68
2021/05/26 09:51:45;;;;;;;;;;;14.60;99.90;;;;;;5110195;28;20032;-68
2021/05/26 09:54:15;;;;;;;3.33;1.13;;;14.00;99.90;;;;;;5091641;28;20369;-67
2021/05/26 09:56:42;;;;;;;5.28;1.38;;;13.60;99.90;;;;;;5108654;28;20050;-65
2021/05/26 09:59:08;;;;;;;3.45;1.00;;;13.40;99.90;;;;;;5108777;28;20051;-65
2021/05/26 10:01:35;;;;;;;4.25;0.88;;;13.20;99.90;;;;;;5107861;28;20078;-65
2021/05/26 10:04:02;;;;;;;6.80;1.27;;;13.10;99.90;;;;;;5108772;28;20128;-65
2021/05/26 10:06:29;;;;;;;3.92;1.35;;;13.10;99.90;;;;;;5089596;28;20050;-65
2021/05/26 10:08:56;;;;;;;5.25;0.82;;;13.10;99.90;;;;;;5091039;28;20122;-65
2021/05/26 10:11:22;;;;;;;2.72;1.45;;;13.00;99.90;;;;;;5107527;28;20062;-64
2021/05/26 10:13:51;;;;;;;2.65;1.10;;;12.90;99.90;;;;;;5108249;28;20501;-67
2021/05/26 10:16:18;;;;;;;3.85;1.10;;;12.70;99.90;;;;;;5090471;28;20151;-66
2021/05/26 10:18:46;;;;;;;2.63;1.20;;;12.70;99.90;;;;;;5108180;28;20492;-63
2021/05/26 10:21:15;;;;;;;3.53;1.40;;;12.50;99.90;;;;;;5112718;28;20055;-65
2021/05/26 10:23:41;;;;;;;4.28;1.25;;;12.30;99.90;;;;;;5111217;28;20480;-64
2021/05/26 10:26:07;;;;;;;4.70;1.33;;;12.50;99.90;;;;;;5112101;28;20356;-64
2021/05/26 10:28:34;;;;;;;3.05;0.85;;;12.50;99.90;;;;;;5111590;28;20484;-65
2021/05/26 10:31:02;;;;;;;3.33;0.95;;;12.40;99.90;;;;;;5112265;28;20065;-64
2021/05/26 10:33:39;;;;;;;2.63;0.70;;;12.20;99.90;;;;;;5111577;28;20110;-65
2021/05/26 10:36:08;;;;;;;3.45;1.00;;;12.20;99.90;;;;;;5110300;28;20440;-64
2021/05/26 10:39:00;;;;;;;3.42;0.90;;;12.10;99.90;;;;;;5109509;28;20337;-64
2021/05/26 10:41:46;;;;;;;4.80;1.15;;;12.20;99.90;;;;;;5108288;28;20031;-68
2021/05/26 10:44:12;;;;;;;5.13;1.15;;;12.20;99.90;;;;;;5098756;28;20024;-68
2021/05/26 10:46:41;;;;;;;9.27;1.90;;;12.30;99.90;;;;;;5089425;28;20051;-67
2021/05/26 10:49:11;;;;;;;3.22;1.30;;;12.30;99.90;;;;;;5090082;28;20490;-68
2021/05/26 10:51:52;;;;;;;2.53;1.40;;;12.30;99.90;;;;;;5106619;28;20019;-68
2021/05/26 10:54:39;;;;;;;5.13;1.42;;;12.20;99.90;;;;;;5109254;28;20038;-69
2021/05/26 10:57:09;;;;;;;3.63;1.55;;;12.30;99.90;;;;;;5109660;28;20126;-67
2021/05/26 10:59:35;;;;;;;6.38;1.65;;;12.00;99.90;;;;;;5109525;28;20047;-68
2021/05/26 11:02:04;;;;;;;4.63;1.30;;;12.00;99.90;;;;;;5109809;28;20020;-68
2021/05/26 11:04:37;;;;;;;6.13;1.38;;;12.00;99.90;;;;;;5110654;28;20380;-67
2021/05/26 11:07:18;;;;;;;3.47;1.40;;;12.00;99.90;;;;;;5111709;28;20084;-68
2021/05/26 11:09:53;;;;;;;6.13;2.08;;;11.90;99.90;;;;;;5109880;28;20032;-67
2021/05/26 11:12:19;;;;;;;6.63;2.20;;;11.90;99.90;;;;;;5109626;28;20027;-70
2021/05/26 11:14:46;;;;;;;3.67;2.10;;;12.00;99.90;;;;;;5110956;28;20020;-69
2021/05/26 11:17:14;;;;;;;4.50;2.65;;;11.90;99.90;;;;;;5101530;28;20027;-68
2021/05/26 11:19:40;;;;;;;5.53;2.42;;;12.00;99.90;;;;;;5090900;28;20485;-68
2021/05/26 11:22:11;;;;;;;9.30;4.28;;;11.90;99.90;;;;;;5110845;28;20055;-68
2021/05/26 11:24:39;;;;;;;6.43;2.75;;;11.90;99.90;;;;;;5108974;28;20340;-67
2021/05/26 11:27:26;;;;;;;4.88;3.15;;;11.80;99.90;;;;;;5109009;28;20418;-68
2021/05/26 11:30:00;;;;;;;3.92;2.97;;;11.80;99.90;;;;;;5111256;28;20110;-67
2021/05/26 11:32:26;;;;;;;4.47;2.63;;;11.90;99.90;;;;;;5110476;28;20023;-67
2021/05/26 11:34:54;;;;;;;3.35;2.75;;;11.80;99.90;;;;;;5109349;28;20093;-67
2021/05/26 11:37:37;;;;;;;7.35;2.60;;;11.90;99.90;;;;;;5108834;28;20027;-68
2021/05/26 11:40:19;;;;;;;4.13;2.55;;;11.80;99.90;;;;;;5110832;28;20024;-68
2021/05/26 11:42:46;;;;;;;3.50;2.85;;;11.90;99.90;;;;;;5109781;28;20020;-68
2021/05/26 11:45:12;;;;;;;4.68;2.80;;;12.00;99.90;;;;;;5110746;28;20046;-67
2021/05/26 11:47:50;;;;;;;5.00;2.38;;;12.00;99.90;;;;;;5110365;28;20106;-67
2021/05/26 11:50:16;;;;;;;5.88;3.25;;;12.10;99.90;;;;;;5110804;28;20371;-68
2021/05/26 11:52:50;;;;;;;4.28;2.70;;;12.20;99.90;;;;;;5110390;28;20019;-67
2021/05/26 11:55:23;;;;;;;5.25;2.40;;;12.30;99.90;;;;;;5110833;28;20426;-67
2021/05/26 11:57:51;;;;;;;4.38;2.22;;;12.50;99.90;;;;;;5110615;28;20031;-67
2021/05/26 12:00:32;;;;;;;4.18;2.13;;;12.50;99.90;;;;;;5110473;28;20415;-67
2021/05/26 12:03:02;;;;;;;8.57;3.13;;;12.50;99.90;;;;;;5110553;28;20047;-67
2021/05/26 12:05:43;;;;;;;2.45;2.10;;;12.50;99.90;;;;;;5109941;28;20058;-68
2021/05/26 12:08:22;;;;;;;2.42;1.85;;;12.50;99.90;;;;;;5110495;28;20093;-68
2021/05/26 12:11:02;;;;;;;6.95;2.30;;;12.40;99.90;;;;;;5108850;28;20422;-66
2021/05/26 12:13:33;;;;;;;3.05;1.85;;;12.20;99.90;;;;;;5109979;28;20446;-68
2021/05/26 12:16:04;;;;;;;6.40;1.88;;;12.10;99.90;;;;;;5110636;28;20062;-67
2021/05/26 12:18:30;;;;;;;4.95;2.03;;;12.10;99.90;;;;;;5108491;28;20139;-67
2021/05/26 12:20:57;;;;;;;2.30;1.30;;;12.10;99.90;;;;;;5108955;28;20524;-67
2021/05/26 12:23:34;;;;;;;2.05;1.80;;;12.00;99.90;;;;;;5108353;28;20426;-68
2021/05/26 12:26:01;;;;;;;2.60;1.38;;;12.00;99.90;;;;;;5109920;28;20093;-69
2021/05/26 12:28:29;;;;;;;4.65;1.45;;;12.00;99.90;;;;;;5090045;28;20028;-69
2021/05/26 12:30:56;;;;;;;2.97;1.58;;;11.80;99.90;;;;;;5092407;28;20388;-68
2021/05/26 12:33:23;;;;;;;1.88;1.30;;;11.80;99.90;;;;;;5091924;28;20451;-68
2021/05/26 12:36:05;;;;;;;4.18;1.35;;;11.80;99.90;;;;;;5092565;28;20437;-67
2021/05/26 12:38:39;;;;;;;2.80;2.00;;;12.00;99.90;;;;;;5092136;28;20028;-68
2021/05/26 12:41:21;;;;;;;3.22;2.10;;;12.10;99.90;;;;;;5092020;28;20028;-68
2021/05/26 12:43:47;;;;;;;3.90;1.80;;;12.10;99.90;;;;;;5094017;28;20043;-66
2021/05/26 12:46:32;;;;;;;1.90;1.80;;;12.10;99.90;;;;;;5093198;28;20067;-70
2021/05/26 12:48:57;;;;;;;2.85;1.98;;;12.10;99.90;;;;;;5093556;28;20075;-67
2021/05/26 12:51:23;;;;;;;3.25;2.00;;;12.10;99.90;;;;;;5093348;28;20058;-69
2021/05/26 12:53:56;;;;;;;3.40;1.30;;;12.10;99.90;;;;;;5094216;28;20039;-68